createdAt,value
2018-11-04T00:01:44.599Z,19.50
2018-11-04T00:04:14.239Z,19.50
2018-11-04T00:06:43.691Z,19.50
2018-11-04T00:09:13.349Z,19.50
2018-11-04T00:11:42.766Z,19.50
2018-11-04T00:14:12.498Z,19.50
2018-11-04T00:16:42.147Z,19.50
2018-11-04T00:19:11.661Z,19.50
2018-11-04T00:21:41.065Z,19.50
2018-11-04T00:24:10.646Z,19.50
2018-11-04T00:26:40.146Z,19.50
2018-11-04T00:29:09.780Z,19.50
2018-11-04T00:31:39.186Z,19.50
2018-11-04T00:34:08.744Z,19.50
2018-11-04T00:36:38.258Z,19.50
2018-11-04T00:39:08.963Z,19.50
2018-11-04T00:41:38.438Z,19.50
2018-11-04T00:44:07.936Z,19.40
2018-11-04T00:46:37.303Z,19.40
2018-11-04T00:49:07.202Z,19.40
2018-11-04T00:51:36.643Z,19.40
2018-11-04T00:54:06.138Z,19.40
2018-11-04T00:56:35.731Z,19.40
2018-11-04T00:59:05.190Z,19.40
2018-11-04T01:01:34.711Z,19.40
2018-11-04T01:04:04.336Z,19.40
2018-11-04T01:06:33.851Z,19.40
2018-11-04T01:09:03.611Z,19.40
2018-11-04T01:11:33.379Z,19.40
2018-11-04T01:14:02.798Z,19.40
2018-11-04T01:16:32.310Z,19.40
2018-11-04T01:19:01.741Z,19.40
2018-11-04T01:21:31.396Z,19.40
2018-11-04T01:24:01.009Z,19.40
2018-11-04T01:26:30.440Z,19.40
2018-11-04T01:29:00.045Z,19.40
2018-11-04T01:31:29.430Z,19.40
2018-11-04T01:33:58.915Z,19.40
2018-11-04T01:36:28.519Z,19.40
2018-11-04T01:38:57.955Z,19.40
2018-11-04T01:41:27.465Z,19.40
2018-11-04T01:43:56.882Z,19.40
2018-11-04T01:46:26.435Z,19.40
2018-11-04T01:48:55.958Z,19.40
2018-11-04T01:51:25.474Z,19.40
2018-11-04T01:53:54.918Z,19.40
2018-11-04T01:56:24.450Z,19.40
2018-11-04T01:58:54.058Z,19.40
2018-11-04T02:01:23.630Z,19.40
2018-11-04T02:03:53.570Z,19.40
2018-11-04T02:06:23.231Z,19.40
2018-11-04T02:08:52.848Z,19.30
2018-11-04T02:11:23.393Z,19.30
2018-11-04T02:13:52.827Z,19.30
2018-11-04T02:16:22.430Z,19.30
2018-11-04T02:18:51.970Z,19.30
2018-11-04T02:21:21.480Z,19.30
2018-11-04T02:23:50.826Z,19.30
2018-11-04T02:26:20.358Z,19.30
2018-11-04T02:28:51.210Z,19.30
2018-11-04T02:31:20.618Z,19.30
2018-11-04T02:33:50.018Z,19.30
2018-11-04T02:36:21.034Z,19.30
2018-11-04T02:38:50.631Z,19.30
2018-11-04T02:41:20.360Z,19.30
2018-11-04T02:43:49.768Z,19.30
2018-11-04T02:46:19.223Z,19.30
2018-11-04T02:48:48.751Z,19.30
2018-11-04T02:51:18.254Z,19.30
2018-11-04T02:53:47.838Z,19.30
2018-11-04T02:56:17.354Z,19.20
2018-11-04T02:58:47.460Z,19.20
2018-11-04T03:01:17.038Z,19.20
2018-11-04T03:03:47.209Z,19.20
2018-11-04T03:06:17.234Z,19.20
2018-11-04T03:08:46.735Z,19.20
2018-11-04T03:11:16.846Z,19.20
2018-11-04T03:13:47.242Z,19.20
2018-11-04T03:16:16.782Z,19.20
2018-11-04T03:18:48.363Z,19.20
2018-11-04T03:21:18.123Z,19.20
2018-11-04T03:23:47.750Z,19.20
2018-11-04T03:26:18.357Z,19.20
2018-11-04T03:28:48.011Z,19.10
2018-11-04T03:31:18.355Z,19.20
2018-11-04T03:33:49.174Z,19.10
2018-11-04T03:36:18.699Z,19.10
2018-11-04T03:38:48.456Z,19.10
2018-11-04T03:41:18.251Z,19.10
2018-11-04T03:43:48.052Z,19.10
2018-11-04T03:46:17.797Z,19.10
2018-11-04T03:48:47.302Z,19.10
2018-11-04T03:51:16.734Z,19.10
2018-11-04T03:53:46.166Z,19.10
2018-11-04T03:56:15.799Z,19.10
2018-11-04T03:58:45.315Z,19.10
2018-11-04T04:01:14.862Z,19.10
2018-11-04T04:03:44.367Z,19.10
2018-11-04T04:06:13.766Z,19.10
2018-11-04T04:08:43.158Z,19.10
2018-11-04T04:11:12.590Z,19.10
2018-11-04T04:13:42.126Z,19.10
2018-11-04T04:16:11.743Z,19.00
2018-11-04T04:18:41.274Z,19.00
2018-11-04T04:21:11.543Z,19.00
2018-11-04T04:23:42.088Z,19.10
2018-11-04T04:26:12.319Z,19.00
2018-11-04T04:28:42.031Z,19.00
2018-11-04T04:31:11.558Z,19.00
2018-11-04T04:33:41.078Z,19.00
2018-11-04T04:36:10.645Z,19.00
2018-11-04T04:38:40.082Z,19.00
2018-11-04T04:41:09.486Z,19.00
2018-11-04T04:43:38.885Z,19.00
2018-11-04T04:46:08.330Z,19.00
2018-11-04T04:48:37.967Z,19.00
2018-11-04T04:51:07.391Z,19.00
2018-11-04T04:53:36.803Z,19.00
2018-11-04T04:56:06.598Z,19.00
2018-11-04T04:58:36.182Z,19.00
2018-11-04T05:01:05.726Z,19.00
2018-11-04T05:03:35.173Z,19.00
2018-11-04T05:06:04.803Z,19.00
2018-11-04T05:08:34.339Z,18.90
2018-11-04T05:11:03.885Z,18.90
2018-11-04T05:13:33.407Z,18.90
2018-11-04T05:16:03.057Z,18.90
2018-11-04T05:18:32.631Z,18.90
2018-11-04T05:21:02.059Z,18.90
2018-11-04T05:23:31.458Z,18.90
2018-11-04T05:26:01.026Z,18.90
2018-11-04T05:28:30.538Z,18.90
2018-11-04T05:31:00.068Z,18.80
2018-11-04T05:33:29.474Z,18.90
2018-11-04T05:35:58.962Z,18.90
2018-11-04T05:38:28.552Z,18.80
2018-11-04T05:40:58.098Z,18.90
2018-11-04T05:43:27.630Z,18.90
2018-11-04T05:45:57.179Z,18.90
2018-11-04T05:48:26.710Z,18.90
2018-11-04T05:50:56.109Z,18.90
2018-11-04T05:53:25.651Z,18.90
2018-11-04T05:55:55.298Z,18.90
2018-11-04T05:58:24.725Z,18.80
2018-11-04T06:00:54.092Z,18.80
2018-11-04T06:03:23.740Z,18.80
2018-11-04T06:05:53.215Z,18.80
2018-11-04T06:08:22.643Z,18.80
2018-11-04T06:10:52.349Z,18.80
2018-11-04T06:13:21.831Z,18.80
2018-11-04T06:15:51.371Z,18.80
2018-11-04T06:18:20.767Z,18.80
2018-11-04T06:20:50.300Z,18.80
2018-11-04T06:23:19.859Z,18.80
2018-11-04T06:25:49.558Z,18.80
2018-11-04T06:28:18.984Z,18.80
2018-11-04T06:30:48.350Z,18.80
2018-11-04T06:33:17.965Z,18.70
2018-11-04T06:35:48.115Z,18.70
2018-11-04T06:38:17.721Z,18.70
2018-11-04T06:40:47.796Z,18.70
2018-11-04T06:43:17.274Z,18.70
2018-11-04T06:45:47.039Z,18.70
2018-11-04T06:48:16.572Z,18.70
2018-11-04T06:50:45.989Z,18.70
2018-11-04T06:53:15.419Z,18.70
2018-11-04T06:55:45.059Z,18.60
2018-11-04T06:58:14.551Z,18.60
2018-11-04T07:00:43.998Z,18.60
2018-11-04T07:03:13.445Z,18.60
2018-11-04T07:05:43.067Z,18.70
2018-11-04T07:08:12.590Z,18.70
2018-11-04T07:10:42.095Z,18.70
2018-11-04T07:13:11.678Z,18.70
2018-11-04T07:15:41.279Z,18.70
2018-11-04T07:18:10.735Z,18.70
2018-11-04T07:20:40.086Z,18.60
2018-11-04T07:23:09.692Z,18.60
2018-11-04T07:25:39.272Z,18.60
2018-11-04T07:28:08.829Z,18.60
2018-11-04T07:30:38.409Z,18.60
2018-11-04T07:33:08.055Z,18.60
2018-11-04T07:35:38.713Z,18.60
2018-11-04T07:38:08.132Z,18.60
2018-11-04T07:40:38.775Z,18.60
2018-11-04T07:43:08.554Z,18.60
2018-11-04T07:45:38.238Z,18.60
2018-11-04T07:48:07.887Z,18.60
2018-11-04T07:50:38.419Z,18.70
2018-11-04T07:53:09.015Z,18.70
2018-11-04T07:55:38.425Z,18.70
2018-11-04T07:58:08.240Z,18.70
2018-11-04T08:00:38.414Z,18.70
2018-11-04T08:03:08.666Z,18.70
2018-11-04T08:05:38.190Z,18.70
2018-11-04T08:08:07.821Z,18.70
2018-11-04T08:10:37.350Z,18.70
2018-11-04T08:13:07.009Z,18.70
2018-11-04T08:15:36.512Z,18.70
2018-11-04T08:18:06.368Z,18.70
2018-11-04T08:20:35.865Z,18.70
2018-11-04T08:23:05.390Z,18.70
2018-11-04T08:25:35.114Z,18.70
2018-11-04T08:28:04.613Z,18.60
2018-11-04T08:30:34.153Z,18.40
2018-11-04T08:33:03.802Z,18.40
2018-11-04T08:35:33.503Z,18.50
2018-11-04T08:38:03.070Z,18.50
2018-11-04T08:40:32.680Z,18.50
2018-11-04T08:43:02.170Z,18.60
2018-11-04T08:45:31.759Z,18.60
2018-11-04T09:01:00.666Z,18.60
2018-11-04T09:03:33.829Z,18.60
2018-11-04T09:06:03.494Z,18.70
2018-11-04T09:08:33.059Z,18.70
2018-11-04T09:11:02.690Z,18.70
2018-11-04T09:13:32.344Z,18.70
2018-11-04T09:16:01.830Z,18.70
2018-11-04T09:18:31.270Z,18.70
2018-11-04T09:21:00.798Z,18.70
2018-11-04T09:23:30.489Z,18.70
2018-11-04T09:25:59.950Z,18.70
2018-11-04T09:28:29.591Z,18.70
2018-11-04T09:30:59.404Z,18.70
2018-11-04T09:33:29.378Z,18.80
2018-11-04T09:35:59.192Z,18.70
2018-11-04T09:38:29.003Z,18.80
2018-11-04T09:40:58.602Z,18.80
2018-11-04T09:43:28.554Z,18.70
2018-11-04T09:45:59.526Z,18.80
2018-11-04T09:48:29.920Z,18.80
2018-11-04T09:50:59.710Z,18.80
2018-11-04T09:53:29.722Z,18.80
2018-11-04T09:55:59.687Z,18.80
2018-11-04T09:58:29.770Z,18.80
2018-11-04T10:00:59.898Z,18.80
2018-11-04T10:03:30.082Z,18.80
2018-11-04T10:06:00.374Z,18.80
2018-11-04T10:08:30.492Z,18.80
2018-11-04T10:11:00.913Z,18.80
2018-11-04T10:13:31.239Z,18.80
2018-11-04T10:16:01.442Z,18.80
2018-11-04T10:18:31.711Z,18.80
2018-11-04T10:21:01.900Z,18.80
2018-11-04T10:23:32.126Z,18.80
2018-11-04T10:26:02.804Z,18.80
2018-11-04T10:28:33.146Z,18.80
2018-11-04T10:31:03.728Z,18.80
2018-11-04T10:33:34.429Z,18.80
2018-11-04T10:36:04.979Z,18.80
2018-11-04T10:38:35.008Z,18.90
2018-11-04T10:41:06.058Z,18.90
2018-11-04T10:43:36.631Z,18.90
2018-11-04T10:46:07.995Z,18.90
2018-11-04T10:48:38.588Z,18.90
2018-11-04T10:51:09.329Z,18.90
2018-11-04T10:53:40.106Z,18.80
2018-11-04T10:56:11.043Z,18.80
2018-11-04T10:58:41.726Z,18.90
2018-11-04T11:01:13.743Z,18.80
2018-11-04T11:03:44.678Z,18.80
2018-11-04T11:06:15.354Z,18.90
2018-11-04T11:08:45.999Z,18.90
2018-11-04T11:11:16.734Z,18.90
2018-11-04T11:13:47.467Z,18.80
2018-11-04T11:16:18.584Z,18.90
2018-11-04T11:18:49.314Z,18.90
2018-11-04T11:21:20.163Z,18.90
2018-11-04T11:23:50.912Z,18.90
2018-11-04T11:26:21.631Z,18.90
2018-11-04T11:28:52.155Z,18.80
2018-11-04T11:31:22.925Z,18.80
2018-11-04T11:33:53.783Z,18.90
2018-11-04T11:36:24.389Z,18.80
2018-11-04T11:38:54.978Z,18.90
2018-11-04T11:41:25.309Z,18.90
2018-11-04T11:43:55.982Z,18.90
2018-11-04T11:46:27.102Z,19.00
2018-11-04T11:48:57.715Z,19.00
2018-11-04T11:51:28.269Z,19.00
2018-11-04T11:53:58.837Z,19.00
2018-11-04T11:56:29.637Z,18.90
2018-11-04T11:59:00.600Z,18.90
2018-11-04T12:01:31.193Z,18.90
2018-11-04T12:04:02.746Z,18.90
2018-11-04T12:06:33.696Z,18.90
2018-11-04T12:09:05.658Z,19.00
2018-11-04T12:11:36.539Z,19.00
2018-11-04T12:14:07.387Z,19.00
2018-11-04T12:16:38.179Z,19.00
2018-11-04T12:19:08.775Z,19.00
2018-11-04T12:21:39.693Z,19.00
2018-11-04T12:24:10.872Z,19.00
2018-11-04T12:26:41.815Z,19.00
2018-11-04T12:29:12.835Z,19.00
2018-11-04T12:31:43.511Z,19.00
2018-11-04T12:34:14.606Z,18.90
2018-11-04T12:36:45.286Z,19.00
2018-11-04T12:39:15.979Z,19.00
2018-11-04T12:41:47.115Z,19.00
2018-11-04T12:44:18.655Z,18.90
2018-11-04T12:46:50.304Z,19.00
2018-11-04T12:49:21.191Z,19.00
2018-11-04T12:51:52.077Z,18.90
2018-11-04T12:54:23.766Z,18.90
2018-11-04T12:56:54.682Z,18.90
2018-11-04T12:59:26.626Z,18.90
2018-11-04T13:01:57.762Z,18.90
2018-11-04T13:04:33.861Z,19.00
2018-11-04T13:07:09.752Z,19.00
2018-11-04T13:09:40.454Z,19.00
2018-11-04T13:12:11.312Z,19.00
2018-11-04T13:14:42.038Z,19.00
2018-11-04T13:17:15.753Z,19.00
2018-11-04T13:19:46.494Z,19.00
2018-11-04T13:22:17.704Z,19.00
2018-11-04T13:24:48.750Z,19.00
2018-11-04T13:27:19.673Z,19.00
2018-11-04T13:29:50.527Z,19.00
2018-11-04T13:32:21.484Z,19.00
2018-11-04T13:34:52.208Z,19.00
2018-11-04T13:37:22.743Z,19.00
2018-11-04T13:39:54.606Z,19.00
2018-11-04T13:42:25.502Z,19.00
2018-11-04T13:44:56.367Z,19.00
2018-11-04T13:47:27.481Z,19.10
2018-11-04T13:49:58.490Z,19.10
2018-11-04T13:52:29.080Z,19.10
2018-11-04T13:55:00.494Z,19.00
2018-11-04T13:57:31.770Z,19.00
2018-11-04T14:00:04.540Z,19.00
2018-11-04T14:02:35.614Z,19.00
2018-11-04T14:05:07.955Z,19.00
2018-11-04T14:07:40.345Z,19.00
2018-11-04T14:10:12.968Z,19.00
2018-11-04T14:12:44.557Z,19.00
2018-11-04T14:15:16.650Z,19.00
2018-11-04T14:17:48.652Z,19.00
2018-11-04T14:20:19.960Z,19.00
2018-11-04T14:22:50.840Z,19.00
2018-11-04T14:25:54.804Z,19.00
2018-11-04T14:28:25.655Z,19.00
2018-11-04T14:30:56.289Z,19.00
2018-11-04T14:33:26.986Z,19.00
2018-11-04T14:35:58.349Z,19.00
2018-11-04T14:38:29.458Z,19.00
2018-11-04T14:41:00.333Z,19.00
2018-11-04T14:43:31.195Z,18.90
2018-11-04T14:46:02.547Z,19.00
2018-11-04T14:48:33.515Z,19.00
2018-11-04T14:51:04.592Z,19.00
2018-11-04T14:53:35.292Z,18.90
2018-11-04T14:56:06.147Z,19.00
2018-11-04T14:58:37.246Z,18.90
2018-11-04T15:01:08.338Z,18.90
2018-11-04T15:03:39.042Z,18.90
2018-11-04T15:06:10.483Z,18.90
2018-11-04T15:08:41.518Z,18.90
2018-11-04T15:11:12.381Z,18.90
2018-11-04T15:13:43.227Z,18.90
2018-11-04T15:16:14.654Z,18.90
2018-11-04T15:18:45.842Z,18.90
2018-11-04T15:21:16.607Z,18.90
2018-11-04T15:23:47.361Z,18.90
2018-11-04T15:26:18.157Z,18.90
2018-11-04T15:28:49.459Z,18.90
2018-11-04T15:31:20.451Z,18.90
2018-11-04T15:33:51.258Z,18.90
2018-11-04T15:36:22.092Z,18.90
2018-11-04T15:38:52.873Z,18.90
2018-11-04T15:41:23.631Z,18.90
2018-11-04T15:43:54.732Z,18.90
2018-11-04T15:46:25.737Z,18.90
2018-11-04T15:48:56.586Z,18.90
2018-11-04T15:51:27.501Z,18.80
2018-11-04T15:53:58.231Z,18.90
2018-11-04T15:56:28.976Z,18.90
2018-11-04T15:58:59.753Z,18.90
2018-11-04T16:01:31.010Z,18.90
2018-11-04T16:04:01.999Z,18.90
2018-11-04T16:06:32.802Z,18.90
2018-11-04T16:09:04.111Z,18.80
2018-11-04T16:11:35.269Z,18.90
2018-11-04T16:14:06.222Z,18.80
2018-11-04T16:16:39.235Z,18.90
2018-11-04T16:19:10.347Z,18.90
2018-11-04T16:21:41.209Z,18.90
2018-11-04T16:24:12.060Z,18.90
2018-11-04T16:26:42.795Z,18.90
2018-11-04T16:29:15.884Z,18.90
2018-11-04T16:31:47.597Z,18.90
2018-11-04T16:34:19.122Z,18.80
2018-11-04T16:36:50.018Z,18.80
2018-11-04T16:39:20.873Z,18.80
2018-11-04T16:41:51.594Z,18.80
2018-11-04T16:44:22.626Z,18.90
2018-11-04T16:46:53.956Z,18.90
2018-11-04T16:49:24.805Z,18.90
2018-11-04T16:51:56.462Z,19.00
2018-11-04T16:54:27.675Z,19.00
2018-11-04T16:56:58.614Z,19.00
2018-11-04T16:59:30.326Z,19.00
2018-11-04T17:02:01.302Z,19.10
2018-11-04T17:04:32.324Z,19.10
2018-11-04T17:07:03.044Z,19.10
2018-11-04T17:09:33.769Z,19.10
2018-11-04T17:12:04.421Z,19.20
2018-11-04T17:14:35.582Z,19.20
2018-11-04T17:17:06.605Z,19.20
2018-11-04T17:19:37.542Z,19.30
2018-11-04T17:22:08.262Z,19.30
2018-11-04T17:24:38.980Z,19.30
2018-11-04T17:27:09.746Z,19.30
2018-11-04T17:29:41.059Z,19.40
2018-11-04T17:32:11.937Z,19.40
2018-11-04T17:34:52.046Z,19.40
2018-11-04T17:37:23.667Z,19.40
2018-11-04T17:39:55.783Z,19.40
2018-11-04T17:42:26.551Z,19.50
2018-11-04T17:44:58.352Z,19.50
2018-11-04T17:47:29.019Z,19.50
2018-11-04T17:50:00.695Z,19.50
2018-11-04T17:52:32.103Z,19.50
2018-11-04T17:55:03.307Z,19.60
2018-11-04T17:57:34.214Z,19.50
2018-11-04T18:00:10.635Z,19.50
2018-11-04T18:02:43.007Z,19.60
2018-11-04T18:05:14.604Z,19.60
2018-11-04T18:07:46.755Z,19.70
2018-11-04T18:10:18.714Z,19.70
2018-11-04T18:12:49.412Z,19.70
2018-11-04T18:15:20.137Z,19.80
2018-11-04T18:17:50.887Z,19.80
2018-11-04T18:20:22.137Z,19.80
2018-11-04T18:22:53.043Z,19.80
2018-11-04T18:25:24.864Z,19.80
2018-11-04T18:27:55.837Z,19.80
2018-11-04T18:30:28.501Z,19.80
2018-11-04T18:33:00.270Z,19.80
2018-11-04T18:35:34.451Z,19.80
2018-11-04T18:38:07.335Z,19.80
2018-11-04T18:40:38.516Z,19.80
2018-11-04T18:43:11.611Z,19.80
2018-11-04T18:45:44.778Z,19.80
2018-11-04T18:48:15.642Z,19.80
2018-11-04T18:50:46.825Z,19.80
2018-11-04T18:53:19.904Z,19.90
2018-11-04T18:55:52.423Z,19.90
2018-11-04T18:58:24.522Z,19.90
2018-11-04T19:00:55.626Z,19.90
2018-11-04T19:03:28.269Z,19.90
2018-11-04T19:05:59.845Z,19.80
2018-11-04T19:08:31.122Z,19.80
2018-11-04T19:11:03.078Z,19.90
2018-11-04T19:13:35.533Z,19.90
2018-11-04T19:16:06.798Z,19.90
2018-11-04T19:18:37.569Z,19.90
2018-11-04T19:21:08.693Z,19.90
2018-11-04T19:23:39.663Z,19.90
2018-11-04T19:26:10.657Z,19.90
2018-11-04T19:28:41.838Z,19.90
2018-11-04T19:31:13.547Z,19.90
2018-11-04T19:33:46.433Z,19.90
2018-11-04T19:36:17.687Z,19.90
2018-11-04T19:38:48.780Z,19.80
2018-11-04T19:41:19.639Z,19.70
2018-11-04T19:43:50.435Z,19.70
2018-11-04T19:46:21.174Z,19.60
2018-11-04T19:48:53.457Z,19.60
2018-11-04T19:51:24.597Z,19.60
2018-11-04T19:53:55.697Z,19.50
2018-11-04T19:56:26.795Z,19.50
2018-11-04T19:58:57.760Z,19.50
2018-11-04T20:01:28.503Z,19.50
2018-11-04T20:03:59.226Z,19.50
2018-11-04T20:06:30.522Z,19.50
2018-11-04T20:09:06.110Z,19.50
2018-11-04T20:11:37.058Z,19.50
2018-11-04T20:14:25.032Z,19.50
2018-11-04T20:16:56.229Z,19.50
2018-11-04T20:19:32.186Z,19.50
2018-11-04T20:22:02.984Z,19.40
2018-11-04T20:24:38.492Z,19.40
2018-11-04T20:27:09.695Z,19.40
2018-11-04T20:29:40.713Z,19.40
2018-11-04T20:32:16.377Z,19.40
2018-11-04T20:34:48.128Z,19.40
2018-11-04T20:37:19.078Z,19.40
2018-11-04T20:39:55.180Z,19.40
2018-11-04T20:42:26.108Z,19.40
2018-11-04T20:44:57.085Z,19.30
2018-11-04T20:47:32.721Z,19.40
2018-11-04T20:50:08.406Z,19.40
2018-11-04T20:52:39.675Z,19.40
2018-11-04T20:55:11.310Z,19.40
2018-11-04T20:58:13.195Z,19.40
2018-11-04T21:00:43.987Z,19.40
2018-11-04T21:03:15.109Z,19.40
2018-11-04T21:05:45.826Z,19.40
2018-11-04T21:08:16.571Z,19.40
2018-11-04T21:10:47.367Z,19.40
2018-11-04T21:13:19.196Z,19.30
2018-11-04T21:15:50.186Z,19.30
2018-11-04T21:18:20.962Z,19.30
2018-11-04T21:20:51.546Z,19.30
2018-11-04T21:23:22.491Z,19.30
2018-11-04T21:25:53.204Z,19.30
2018-11-04T21:28:23.907Z,19.30
2018-11-04T21:30:54.684Z,19.30
2018-11-04T21:33:25.276Z,19.30
2018-11-04T21:35:56.527Z,19.30
2018-11-04T21:38:27.483Z,19.30
2018-11-04T21:40:58.769Z,19.10
2018-11-04T21:43:30.153Z,18.90
2018-11-04T21:46:00.889Z,18.80
2018-11-04T21:48:31.769Z,18.70
2018-11-04T21:51:02.762Z,18.70
2018-11-04T21:53:33.434Z,18.70
2018-11-04T21:56:04.254Z,18.70
2018-11-04T21:58:34.879Z,18.70
2018-11-04T22:01:06.078Z,18.70
2018-11-04T22:03:37.077Z,18.70
2018-11-04T22:06:07.684Z,18.70
2018-11-04T22:08:38.471Z,18.70
2018-11-04T22:11:09.263Z,18.70
2018-11-04T22:13:40.086Z,18.70
2018-11-04T22:16:10.714Z,18.70
2018-11-04T22:18:41.218Z,18.70
2018-11-04T22:21:12.205Z,18.70
2018-11-04T22:23:42.919Z,18.70
2018-11-04T22:26:13.798Z,18.70
2018-11-04T22:28:44.618Z,18.70
2018-11-04T22:31:15.333Z,18.70
2018-11-04T22:33:45.959Z,18.70
2018-11-04T22:36:16.755Z,18.70
2018-11-04T22:38:46.791Z,18.70
2018-11-04T22:41:16.929Z,18.70
2018-11-04T22:43:46.733Z,18.70
2018-11-04T22:46:16.598Z,18.70
2018-11-04T22:48:46.210Z,18.70
2018-11-04T22:51:15.762Z,18.70
2018-11-04T22:53:45.283Z,18.70
2018-11-04T22:56:14.823Z,18.70
2018-11-04T22:58:44.464Z,18.70
2018-11-04T23:01:14.079Z,18.70
2018-11-04T23:03:43.531Z,18.70
2018-11-04T23:06:12.896Z,18.70
2018-11-04T23:08:42.493Z,18.70
2018-11-04T23:11:12.814Z,18.70
2018-11-04T23:13:42.333Z,18.70
2018-11-04T23:16:11.884Z,18.70
2018-11-04T23:18:41.545Z,18.70
2018-11-04T23:21:11.044Z,18.70
2018-11-04T23:23:40.476Z,18.70
2018-11-04T23:26:10.055Z,18.70
2018-11-04T23:28:39.647Z,18.70
2018-11-04T23:31:09.155Z,18.70
2018-11-04T23:33:38.583Z,18.70
2018-11-04T23:36:07.955Z,18.70
2018-11-04T23:38:37.470Z,18.70
2018-11-04T23:41:07.499Z,18.70
2018-11-04T23:43:37.114Z,18.70
2018-11-04T23:46:06.943Z,18.70
2018-11-04T23:48:36.331Z,18.70
2018-11-04T23:51:05.883Z,18.70
2018-11-04T23:53:35.311Z,18.70
2018-11-04T23:56:04.783Z,18.70
2018-11-04T23:58:34.362Z,18.70
